Time;durP1;ratioP1;P1;durP2;ratioP2;P2;SDS_P1;SDS_P2;PMS_P1;PMS_P2;Temp;Humidity;BMP_temperature;BMP_pressure;BME280_temperature;BME280_humidity;BME280_pressure;Samples;Min_cycle;Max_cycle;Signal;HPM_P1;HPM_P2
2020/12/27 04:12:28;;;;;;;3.05;2.72;;;4.50;99.90;;;;;;9932188;29;20142;-94
2020/12/27 04:17:30;;;;;;;;;;;5.00;99.90;;;;;;9857331;30;20055;-93
2020/12/27 04:22:32;;;;;;;2.55;2.30;;;5.70;99.90;;;;;;9871375;30;19964;-94
2020/12/27 04:27:33;;;;;;;;;;;4.20;99.90;;;;;;9857087;30;20093;-94
2020/12/27 04:32:35;;;;;;;3.15;2.85;;;4.60;99.90;;;;;;9860486;30;19925;-95
2020/12/27 04:37:56;;;;;;;;;;;5.40;99.90;;;;;;9863977;30;20548;-95
2020/12/27 04:43:41;;;;;;;1.85;1.75;;;5.00;99.90;;;;;;9878076;30;19925;-96
2020/12/27 04:48:58;;;;;;;2.05;1.83;;;4.70;99.90;;;;;;9879623;30;20052;-95
2020/12/27 05:00:45;;;;;;;1.65;1.50;;;5.20;99.90;;;;;;9591828;30;20051;-93
2020/12/27 05:19:08;;;;;;;1.58;1.48;;;4.90;99.90;;;;;;9726663;30;20145;-96
2020/12/27 05:24:14;;;;;;;3.70;1.55;;;5.30;99.90;;;;;;9700627;30;20057;-95
2020/12/27 05:29:34;;;;;;;1.70;1.60;;;5.90;99.90;;;;;;9714670;30;20066;-94
2020/12/27 05:35:01;;;;;;;1.77;1.30;;;6.00;99.90;;;;;;9741314;30;20159;-95
2020/12/27 05:40:06;;;;;;;1.40;1.10;;;5.40;99.90;;;;;;9784001;30;20066;-95
2020/12/27 05:45:37;;;;;;;1.20;1.10;;;5.00;99.90;;;;;;9846435;30;20121;-95
2020/12/27 06:04:57;;;;;;;5.63;1.35;;;5.10;99.90;;;;;;9650379;30;20053;-95
2020/12/27 06:23:54;;;;;;;0.82;0.82;;;4.40;99.90;;;;;;9868748;30;20060;-95
2020/12/27 06:29:22;;;;;;;0.73;0.73;;;4.70;99.90;;;;;;9830942;30;20058;-96
2020/12/27 06:40:40;;;;;;;0.70;0.70;;;4.90;99.90;;;;;;9869115;30;20504;-95
2020/12/27 06:45:53;;;;;;;0.95;0.90;;;5.10;99.90;;;;;;9860260;30;20117;-94
2020/12/27 06:51:36;;;;;;;0.75;0.75;;;4.80;99.90;;;;;;9846275;30;20497;-95
2020/12/27 06:56:42;;;;;;;0.75;0.75;;;5.30;99.90;;;;;;9858847;30;20059;-95
2020/12/27 07:08:52;;;;;;;0.60;0.60;;;5.50;99.90;;;;;;9725475;30;20132;-93
2020/12/27 07:13:58;;;;;;;0.60;0.57;;;5.90;99.90;;;;;;9825482;30;20083;-95
2020/12/27 07:19:26;;;;;;;1.08;0.80;;;5.00;99.90;;;;;;9857268;30;20111;-93
2020/12/27 07:25:09;;;;;;;0.95;0.70;;;6.00;99.90;;;;;;9857895;30;20062;-94
2020/12/27 07:30:19;;;;;;;0.85;0.85;;;5.50;99.90;;;;;;9858754;30;20055;-96
2020/12/27 07:35:50;;;;;;;0.80;0.80;;;5.60;99.90;;;;;;9857755;30;20505;-95
2020/12/27 07:41:31;;;;;;;0.85;0.60;;;5.20;99.90;;;;;;9862543;30;20051;-94
2020/12/27 07:46:32;;;;;;;2.28;0.60;;;6.00;99.90;;;;;;9857937;30;20063;-95
2020/12/27 07:51:34;;;;;;;;;;;4.90;99.90;;;;;;9858581;30;20075;-96
2020/12/27 07:57:15;;;;;;;0.40;0.40;;;5.50;99.90;;;;;;9858045;30;19926;-96
2020/12/27 08:02:20;;;;;;;0.50;0.50;;;5.20;99.90;;;;;;9714752;30;20116;-96
2020/12/27 08:07:25;;;;;;;0.50;0.40;;;4.90;99.90;;;;;;9701374;30;20065;-96
2020/12/27 08:13:04;;;;;;;0.68;0.50;;;4.80;99.90;;;;;;9731789;30;20077;-96
2020/12/27 08:18:27;;;;;;;3.30;0.40;;;5.50;99.90;;;;;;9702364;30;20061;-96
2020/12/27 08:24:35;;;;;;;0.40;0.40;;;4.80;99.90;;;;;;9776744;30;20076;-96
2020/12/27 08:29:37;;;;;;;0.40;0.40;;;4.90;99.90;;;;;;9880294;30;20090;-96
2020/12/27 08:34:59;;;;;;;;;;;;;;;;;;9850103;30;20087;-95
2020/12/27 08:40:04;;;;;;;1.42;0.30;;;5.00;99.90;;;;;;9892676;30;20389;-95
2020/12/27 14:28:18;;;;;;;0.45;0.40;;;6.00;99.90;;;;;;9972898;29;20062;-93
2020/12/27 14:33:19;;;;;;;0.30;0.30;;;5.90;99.90;;;;;;9871662;30;20068;-94
2020/12/27 14:38:21;;;;;;;0.45;0.45;;;5.90;99.90;;;;;;9875379;30;20147;-95
2020/12/27 14:43:23;;;;;;;16.10;0.88;;;5.80;99.90;;;;;;9873700;30;20135;-95
2020/12/27 14:48:25;;;;;;;0.50;0.50;;;5.70;99.90;;;;;;9873446;30;20071;-94
2020/12/27 14:53:27;;;;;;;0.38;0.38;;;5.60;99.90;;;;;;9858805;30;20097;-93
2020/12/27 14:58:29;;;;;;;0.40;0.40;;;5.80;99.90;;;;;;9859083;30;20575;-96
2020/12/27 15:03:31;;;;;;;0.20;0.20;;;5.60;99.90;;;;;;9873170;30;20132;-95
2020/12/27 15:08:33;;;;;;;2.00;1.80;;;5.50;99.90;;;;;;9875124;30;20130;-95
2020/12/27 15:13:35;;;;;;;0.60;0.60;;;5.50;99.90;;;;;;9874025;30;20184;-95
2020/12/27 15:18:36;;;;;;;1.08;0.30;;;5.60;99.90;;;;;;9859355;30;20068;-94
2020/12/27 15:24:03;;;;;;;0.30;0.20;;;5.70;99.90;;;;;;9872670;30;20105;-96
2020/12/27 15:29:47;;;;;;;0.50;0.50;;;5.40;99.90;;;;;;9863889;30;20059;-96
2020/12/27 15:35:11;;;;;;;0.30;0.30;;;5.50;99.90;;;;;;9894827;30;20213;-96
2020/12/27 15:40:14;;;;;;;0.85;0.40;;;5.50;99.90;;;;;;9873957;30;20070;-95
2020/12/27 15:45:59;;;;;;;0.40;0.40;;;5.60;99.90;;;;;;9894431;30;20488;-96
2020/12/27 15:51:09;;;;;;;0.25;0.25;;;5.50;99.90;;;;;;9878641;30;20059;-96
2020/12/27 15:56:22;;;;;;;0.50;0.50;;;5.50;99.90;;;;;;9894945;30;20059;-95
2020/12/27 16:01:27;;;;;;;0.30;0.30;;;5.40;99.90;;;;;;9895491;30;20063;-95
2020/12/27 16:06:36;;;;;;;0.52;0.52;;;5.40;99.90;;;;;;9895340;30;20074;-96
2020/12/27 16:11:43;;;;;;;0.63;0.47;;;5.40;99.90;;;;;;9894493;30;20111;-95
2020/12/27 16:16:46;;;;;;;0.40;0.40;;;5.30;99.90;;;;;;9894266;30;20063;-95
2020/12/27 16:21:48;;;;;;;0.40;0.40;;;5.30;99.90;;;;;;9894284;30;20124;-96
2020/12/27 16:26:59;;;;;;;0.47;0.47;;;5.20;99.90;;;;;;9882577;29;20055;-94
2020/12/27 16:32:01;;;;;;;0.52;0.52;;;5.20;99.90;;;;;;9900067;30;20059;-95
2020/12/27 16:37:17;;;;;;;0.52;0.52;;;5.10;99.90;;;;;;9889452;30;20059;-95
